Ana Sayfa
METAR-TAF:

METAR-TAF

Havaalanları :

Gaylord Regional Airport (Otsego County Airport)

Gaylord, Michigan, Amerika Birleşik Devletleri

Enlem: 45-00-59N, Boylam: 084-41-20W, yükseklik: 404 m

Güncel hava durumu gözlemi

Rapor saat 06:53 UTC de 41 dakika önce yapıldı.
Rüzgar değişken yönden 3 kt
Sıcaklık -8°C
Nem 73%
Basınç 1012 hPa
Görüş mesafesi: 8.0 km
2500 ft yükseklikte parçalı çok bulutlu
3700 ft yükseklikte çok bulutlu
hafif kar

METAR: KGLR 290653Z AUTO VRB03KT 5SM -SN BKN025 OVC037 M08/M12 A2988 RMK AO2 SLP140 P0000 T10781117

Saat: 02:34 (07:34 UTC)


TAF: eksik

4.000'den fazla havaalanı için hava durumu gözlemleri ve tahminleri (METAR ve TAF raporları).

Kullanılabilir istasyonlar harita üzerinde sarı ve kırmızı noktalarla gösterilir.

İstasyonun adını görmek için fareyi noktanın üzerinde gezdirin.

Sonrasında hava gözlem ve tahminlerini görmek için tıklayın.

Haritayı değiştirmek için: yaklaştırmak için siyah artı işaretli yeşil düğmeye ve uzaklaştırmak için de eksi işaretli düğmeye hızla tıklayın; bitişik haritalar için yeşil okları kullanın.


METAR-TAF: